createdAt,value
2022-08-31T00:00:19.301Z,78
2022-08-31T00:00:52.469Z,78
2022-08-31T00:01:24.540Z,78
2022-08-31T00:01:47.460Z,78
2022-08-31T00:02:09.850Z,78
2022-08-31T00:02:46.416Z,78
2022-08-31T00:03:18.078Z,78
2022-08-31T00:03:49.589Z,78
2022-08-31T00:04:19.404Z,79
2022-08-31T00:04:53.131Z,79
2022-08-31T00:05:24.943Z,79
2022-08-31T00:05:47.730Z,79
2022-08-31T00:06:10.379Z,79
2022-08-31T00:06:45.195Z,79
2022-08-31T00:07:16.718Z,79
2022-08-31T00:07:49.094Z,79
2022-08-31T00:08:21.900Z,79
2022-08-31T00:08:52.559Z,79
2022-08-31T00:09:25.942Z,79
2022-08-31T00:09:48.944Z,79
2022-08-31T00:10:11.058Z,79
2022-08-31T00:10:44.990Z,79
2022-08-31T00:11:16.817Z,79
2022-08-31T00:11:49.021Z,79
2022-08-31T00:12:19.192Z,79
2022-08-31T00:12:57.576Z,79
2022-08-31T00:13:24.584Z,79
2022-08-31T00:13:47.161Z,79
2022-08-31T00:14:13.329Z,79
2022-08-31T00:14:44.901Z,79
2022-08-31T00:15:17.684Z,79
2022-08-31T00:15:48.400Z,79
2022-08-31T00:16:20.762Z,79
2022-08-31T00:16:52.780Z,79
2022-08-31T00:17:25.081Z,79
2022-08-31T00:17:47.757Z,79
2022-08-31T00:18:13.594Z,79
2022-08-31T00:18:45.523Z,79
2022-08-31T00:19:16.383Z,79
2022-08-31T00:19:48.597Z,79
2022-08-31T00:20:21.636Z,79
2022-08-31T00:20:54.338Z,79
2022-08-31T00:21:25.120Z,79
2022-08-31T00:21:47.741Z,79
2022-08-31T00:22:10.635Z,80
2022-08-31T00:22:50.275Z,79
2022-08-31T00:23:16.984Z,79
2022-08-31T00:23:48.769Z,79
2022-08-31T00:24:20.152Z,79
2022-08-31T00:24:53.386Z,80
2022-08-31T00:25:25.593Z,80
2022-08-31T00:25:48.308Z,80
2022-08-31T00:26:10.811Z,80
2022-08-31T00:26:44.660Z,79
2022-08-31T00:27:16.525Z,79
2022-08-31T00:27:49.051Z,79
2022-08-31T00:28:19.471Z,80
2022-08-31T00:28:52.509Z,80
2022-08-31T00:29:25.015Z,79
2022-08-31T00:29:47.490Z,79
2022-08-31T00:30:10.057Z,79
2022-08-31T00:30:44.673Z,79
2022-08-31T00:31:17.120Z,79
2022-08-31T00:31:48.553Z,79
2022-08-31T00:32:21.484Z,79
2022-08-31T00:32:52.585Z,79
2022-08-31T00:33:25.074Z,79
2022-08-31T00:33:47.636Z,79
2022-08-31T00:34:10.036Z,79
2022-08-31T00:34:44.574Z,79
2022-08-31T00:35:17.097Z,79
2022-08-31T00:35:50.186Z,79
2022-08-31T00:36:19.521Z,79
2022-08-31T00:36:52.583Z,79
2022-08-31T00:37:24.505Z,79
2022-08-31T00:37:47.277Z,79
2022-08-31T00:38:10.690Z,79
2022-08-31T00:38:45.071Z,79
2022-08-31T00:39:17.021Z,79
2022-08-31T00:39:48.460Z,79
2022-08-31T00:40:19.589Z,79
2022-08-31T00:40:52.596Z,79
2022-08-31T00:41:24.581Z,79
2022-08-31T00:41:47.446Z,79
2022-08-31T00:42:09.872Z,79
2022-08-31T00:42:44.484Z,79
2022-08-31T00:43:16.729Z,79
2022-08-31T00:43:48.989Z,79
2022-08-31T00:44:19.272Z,79
2022-08-31T00:44:52.593Z,79
2022-08-31T00:45:25.095Z,80
2022-08-31T00:45:47.275Z,80
2022-08-31T00:46:10.365Z,80
2022-08-31T00:46:44.787Z,80
2022-08-31T00:47:16.884Z,80
2022-08-31T00:47:49.499Z,80
2022-08-31T00:48:19.799Z,80
2022-08-31T00:48:52.469Z,80
2022-08-31T00:49:24.724Z,80
2022-08-31T00:49:47.938Z,80
2022-08-31T00:50:09.849Z,80
2022-08-31T00:50:45.260Z,80
2022-08-31T00:51:18.852Z,80
2022-08-31T00:51:48.545Z,80
2022-08-31T00:52:19.324Z,80
2022-08-31T00:52:52.448Z,80
2022-08-31T00:53:24.542Z,80
2022-08-31T00:53:47.297Z,80
2022-08-31T00:54:10.133Z,80
2022-08-31T00:54:44.796Z,80
2022-08-31T00:55:17.082Z,80
2022-08-31T00:55:48.412Z,80
2022-08-31T00:56:19.378Z,80
2022-08-31T00:56:52.342Z,80
2022-08-31T00:57:34.061Z,80
2022-08-31T00:57:47.601Z,80
2022-08-31T00:58:09.653Z,80
2022-08-31T00:58:44.898Z,80
2022-08-31T00:59:16.552Z,80
2022-08-31T00:59:49.246Z,80
2022-08-31T01:00:19.224Z,80
2022-08-31T01:00:52.709Z,80
2022-08-31T01:01:24.529Z,80
2022-08-31T01:01:47.298Z,80
2022-08-31T01:02:09.622Z,80
2022-08-31T01:02:46.258Z,80
2022-08-31T01:03:18.909Z,80
2022-08-31T01:03:48.637Z,80
2022-08-31T01:04:19.897Z,80
2022-08-31T01:04:52.795Z,80
2022-08-31T01:05:27.342Z,80
2022-08-31T01:05:47.568Z,80
2022-08-31T01:06:10.577Z,80
2022-08-31T01:06:45.646Z,80
2022-08-31T01:07:16.970Z,80
2022-08-31T01:07:48.945Z,80
2022-08-31T01:08:19.182Z,80
2022-08-31T01:08:52.548Z,80
2022-08-31T01:09:25.135Z,80
2022-08-31T01:09:55.346Z,80
2022-08-31T01:10:11.087Z,80
2022-08-31T01:10:44.582Z,80
2022-08-31T01:11:16.740Z,80
2022-08-31T01:11:48.406Z,80
2022-08-31T01:12:20.342Z,80
2022-08-31T01:12:56.345Z,80
2022-08-31T01:13:24.868Z,80
2022-08-31T01:13:47.331Z,80
2022-08-31T01:14:09.882Z,80
2022-08-31T01:14:45.205Z,80
2022-08-31T01:15:16.493Z,80
2022-08-31T01:15:50.398Z,80
2022-08-31T01:16:19.905Z,80
2022-08-31T01:16:52.460Z,80
2022-08-31T01:17:24.614Z,80
2022-08-31T01:17:47.324Z,80
2022-08-31T01:18:09.893Z,80
2022-08-31T01:18:44.486Z,80
2022-08-31T01:19:16.416Z,80
2022-08-31T01:19:48.433Z,80
2022-08-31T01:20:22.893Z,80
2022-08-31T01:20:52.882Z,80
2022-08-31T01:21:24.604Z,80
2022-08-31T01:21:47.490Z,80
2022-08-31T01:22:09.801Z,80
2022-08-31T01:22:44.988Z,80
2022-08-31T01:23:17.957Z,80
2022-08-31T01:23:48.619Z,80
2022-08-31T01:24:19.346Z,80
2022-08-31T01:24:52.748Z,80
2022-08-31T01:25:24.479Z,80
2022-08-31T01:25:47.157Z,80
2022-08-31T01:26:10.005Z,80
2022-08-31T01:26:44.545Z,81
2022-08-31T01:27:17.147Z,81
2022-08-31T01:27:48.592Z,81
2022-08-31T01:28:19.522Z,81
2022-08-31T01:28:52.401Z,81
2022-08-31T01:29:24.424Z,81
2022-08-31T01:29:47.122Z,81
2022-08-31T01:30:09.616Z,81
2022-08-31T01:30:44.429Z,81
2022-08-31T01:31:16.439Z,81
2022-08-31T01:31:56.787Z,81
2022-08-31T01:32:19.275Z,81
2022-08-31T01:32:52.741Z,81
2022-08-31T01:33:25.257Z,81
2022-08-31T01:33:47.733Z,81
2022-08-31T01:34:10.117Z,81
2022-08-31T01:34:44.454Z,81
2022-08-31T01:35:16.611Z,81
2022-08-31T01:35:48.687Z,81
2022-08-31T01:36:20.329Z,81
2022-08-31T01:36:52.817Z,81
2022-08-31T01:37:29.097Z,81
2022-08-31T01:37:47.517Z,81
2022-08-31T01:38:10.191Z,81
2022-08-31T01:38:44.610Z,81
2022-08-31T01:39:16.995Z,81
2022-08-31T01:39:49.185Z,81
2022-08-31T01:40:21.235Z,81
2022-08-31T01:40:53.263Z,81
2022-08-31T01:41:24.422Z,81
2022-08-31T01:41:47.203Z,81
2022-08-31T01:42:10.449Z,82
2022-08-31T01:42:44.575Z,81
2022-08-31T01:43:16.740Z,81
2022-08-31T01:43:48.589Z,81
2022-08-31T01:44:19.492Z,82
2022-08-31T01:44:52.372Z,82
2022-08-31T01:45:24.436Z,82
2022-08-31T01:45:47.209Z,82
2022-08-31T01:46:10.119Z,82
2022-08-31T01:46:45.390Z,82
2022-08-31T01:47:17.400Z,82
2022-08-31T01:47:48.500Z,82
2022-08-31T01:48:22.840Z,82
2022-08-31T01:48:54.193Z,82
2022-08-31T01:49:24.737Z,82
2022-08-31T01:49:48.546Z,82
2022-08-31T01:50:10.370Z,82
2022-08-31T01:50:45.281Z,82
2022-08-31T01:51:16.917Z,82
2022-08-31T01:51:48.412Z,82
2022-08-31T01:52:19.634Z,82
2022-08-31T01:52:52.875Z,82
2022-08-31T01:53:25.208Z,82
2022-08-31T01:53:48.523Z,82
2022-08-31T01:54:11.628Z,82
2022-08-31T01:54:44.893Z,82
2022-08-31T01:55:16.356Z,83
2022-08-31T01:55:52.162Z,83
2022-08-31T01:56:19.397Z,83
2022-08-31T01:56:53.301Z,83
2022-08-31T01:57:33.492Z,83
2022-08-31T01:57:47.142Z,83
2022-08-31T01:58:09.971Z,83
2022-08-31T01:58:45.234Z,83
2022-08-31T01:59:16.495Z,83
2022-08-31T01:59:48.235Z,83
2022-08-31T02:00:19.334Z,83
2022-08-31T02:00:52.927Z,83
2022-08-31T02:01:33.277Z,83
2022-08-31T02:01:47.280Z,83
2022-08-31T02:02:09.546Z,83
2022-08-31T02:02:50.554Z,83
2022-08-31T02:03:16.650Z,83
2022-08-31T02:03:49.302Z,83
2022-08-31T02:04:19.288Z,83
2022-08-31T02:04:52.482Z,83
2022-08-31T02:05:24.833Z,83
2022-08-31T02:05:47.059Z,83
2022-08-31T02:06:10.507Z,83
2022-08-31T02:06:44.614Z,83
2022-08-31T02:07:16.985Z,83
2022-08-31T02:07:48.604Z,83
2022-08-31T02:08:19.319Z,83
2022-08-31T02:08:52.683Z,83
2022-08-31T02:09:25.158Z,83
2022-08-31T02:09:47.876Z,83
2022-08-31T02:12:29.477Z,83
2022-08-31T02:12:51.033Z,83
2022-08-31T02:13:50.926Z,83
2022-08-31T02:14:28.686Z,83
2022-08-31T02:14:50.945Z,83
2022-08-31T02:15:15.421Z,83
2022-08-31T02:15:48.691Z,83
2022-08-31T02:16:20.173Z,83
2022-08-31T02:16:54.482Z,83
2022-08-31T02:17:26.536Z,83
2022-08-31T02:17:49.442Z,83
2022-08-31T02:18:12.113Z,83
2022-08-31T02:18:45.098Z,83
2022-08-31T02:19:16.463Z,83
2022-08-31T02:19:48.491Z,83
2022-08-31T02:20:19.451Z,83
2022-08-31T02:20:53.246Z,83
2022-08-31T02:21:24.987Z,83
2022-08-31T02:21:47.603Z,83
2022-08-31T02:22:13.501Z,83
2022-08-31T02:22:44.731Z,83
2022-08-31T02:23:18.107Z,83
2022-08-31T02:23:48.377Z,83
2022-08-31T02:24:22.836Z,83
2022-08-31T02:24:52.433Z,83
2022-08-31T02:25:25.585Z,83
2022-08-31T02:25:49.871Z,83
2022-08-31T02:26:11.043Z,83
2022-08-31T02:26:44.842Z,83
2022-08-31T02:27:16.809Z,83
2022-08-31T02:27:49.221Z,83
2022-08-31T02:28:19.274Z,83
2022-08-31T02:28:52.345Z,83
2022-08-31T02:29:24.270Z,83
2022-08-31T02:29:46.982Z,83
2022-08-31T02:30:09.827Z,83
2022-08-31T02:30:44.517Z,83
2022-08-31T02:31:16.457Z,83
2022-08-31T02:31:48.415Z,83
2022-08-31T02:32:20.334Z,83
2022-08-31T02:32:52.313Z,83
2022-08-31T02:33:25.107Z,83
2022-08-31T02:33:47.610Z,83
2022-08-31T02:34:12.606Z,83
2022-08-31T02:34:45.338Z,83
2022-08-31T02:35:16.340Z,83
2022-08-31T02:35:51.764Z,83
2022-08-31T02:36:19.410Z,83
2022-08-31T02:36:52.415Z,83
2022-08-31T02:37:25.126Z,83
2022-08-31T02:37:47.997Z,83
2022-08-31T02:38:11.052Z,83
2022-08-31T02:38:45.093Z,83
2022-08-31T02:39:17.128Z,83
2022-08-31T02:39:48.693Z,83
2022-08-31T02:40:20.003Z,83
2022-08-31T02:40:52.210Z,83
2022-08-31T02:41:24.520Z,83
2022-08-31T02:41:47.718Z,83
2022-08-31T02:42:09.672Z,83
2022-08-31T02:42:52.724Z,83
2022-08-31T02:43:24.440Z,83
2022-08-31T02:43:48.950Z,83
2022-08-31T02:44:19.187Z,83
2022-08-31T02:44:52.385Z,83
2022-08-31T02:45:24.455Z,83
2022-08-31T02:45:51.081Z,83
2022-08-31T02:46:09.979Z,83
2022-08-31T02:46:45.840Z,83
2022-08-31T02:47:16.618Z,83
2022-08-31T02:47:48.290Z,83
2022-08-31T02:48:19.331Z,83
2022-08-31T02:48:52.359Z,83
2022-08-31T02:49:26.960Z,83
2022-08-31T02:49:47.943Z,83
2022-08-31T02:50:10.350Z,83
2022-08-31T02:50:48.523Z,83
2022-08-31T02:51:16.340Z,84
2022-08-31T02:51:49.452Z,83
2022-08-31T02:52:19.324Z,84
2022-08-31T02:52:53.510Z,84
2022-08-31T02:53:24.930Z,84
2022-08-31T02:53:47.208Z,84
2022-08-31T02:54:10.299Z,84
2022-08-31T02:54:44.378Z,84
2022-08-31T02:55:16.777Z,84
2022-08-31T02:55:48.905Z,84
2022-08-31T02:56:20.018Z,84
2022-08-31T02:56:52.507Z,84
2022-08-31T02:57:30.683Z,84
2022-08-31T02:57:56.622Z,84
2022-08-31T02:58:28.823Z,84
2022-08-31T02:58:51.208Z,84
2022-08-31T02:59:14.396Z,84
2022-08-31T02:59:48.288Z,84
2022-08-31T03:00:19.327Z,84
2022-08-31T03:00:52.344Z,84
2022-08-31T03:01:24.340Z,84
2022-08-31T03:01:47.041Z,84
2022-08-31T03:02:09.358Z,84
2022-08-31T03:02:49.926Z,84
2022-08-31T03:03:16.384Z,84
2022-08-31T03:03:48.747Z,84
2022-08-31T03:04:20.703Z,84
2022-08-31T03:04:52.301Z,84
2022-08-31T03:05:24.434Z,84
2022-08-31T03:05:47.677Z,84
2022-08-31T03:06:09.940Z,84
2022-08-31T03:06:44.324Z,84
2022-08-31T03:07:16.441Z,84
2022-08-31T03:07:48.213Z,84
2022-08-31T03:08:19.233Z,84
2022-08-31T03:08:52.583Z,84
2022-08-31T03:09:24.530Z,84
2022-08-31T03:09:48.072Z,84
2022-08-31T03:10:10.021Z,84
2022-08-31T03:10:44.400Z,85
2022-08-31T03:11:16.290Z,84
2022-08-31T03:11:48.316Z,85
2022-08-31T03:12:24.837Z,85
2022-08-31T03:12:53.806Z,85
2022-08-31T03:13:24.279Z,85
2022-08-31T03:13:46.988Z,85
2022-08-31T03:14:09.457Z,85
2022-08-31T03:14:44.413Z,85
2022-08-31T03:15:16.449Z,85
2022-08-31T03:15:48.435Z,85
2022-08-31T03:16:19.305Z,85
2022-08-31T03:16:52.259Z,85
2022-08-31T03:17:24.460Z,85
2022-08-31T03:17:47.093Z,85
2022-08-31T03:18:09.543Z,85
2022-08-31T03:18:45.698Z,85
2022-08-31T03:19:16.313Z,85
2022-08-31T03:19:48.181Z,85
2022-08-31T03:20:19.433Z,85
2022-08-31T03:20:52.404Z,85
2022-08-31T03:21:24.820Z,85
2022-08-31T03:21:47.518Z,85
2022-08-31T03:22:10.145Z,85
2022-08-31T03:22:45.778Z,85
2022-08-31T03:23:16.905Z,85
2022-08-31T03:23:48.317Z,85
2022-08-31T03:24:19.782Z,85
2022-08-31T03:24:52.241Z,85
2022-08-31T03:25:24.328Z,85
2022-08-31T03:25:47.173Z,85
2022-08-31T03:26:09.406Z,85
2022-08-31T03:26:44.467Z,85
2022-08-31T03:27:18.747Z,85
2022-08-31T03:27:51.856Z,85
2022-08-31T03:28:19.210Z,85
2022-08-31T03:28:52.311Z,85
2022-08-31T03:29:24.183Z,85
2022-08-31T03:29:47.558Z,85
2022-08-31T03:30:09.980Z,85
2022-08-31T03:30:44.520Z,85
2022-08-31T03:31:16.223Z,85
2022-08-31T03:31:48.764Z,85
2022-08-31T03:32:19.306Z,85
2022-08-31T03:32:52.361Z,85
2022-08-31T03:33:24.328Z,85
2022-08-31T03:33:46.898Z,85
2022-08-31T03:34:09.849Z,85
2022-08-31T03:34:44.800Z,85
2022-08-31T03:35:16.613Z,85
2022-08-31T03:35:48.165Z,85
2022-08-31T03:36:19.323Z,85
2022-08-31T03:36:52.703Z,85
2022-08-31T03:37:24.338Z,85
2022-08-31T03:37:47.388Z,85
2022-08-31T03:38:09.784Z,85
2022-08-31T03:38:45.818Z,85
2022-08-31T03:39:17.767Z,85
2022-08-31T03:39:48.249Z,85
2022-08-31T03:40:20.770Z,85
2022-08-31T03:40:52.366Z,85
2022-08-31T03:41:24.288Z,85
2022-08-31T03:41:50.910Z,85
2022-08-31T03:42:09.678Z,85
2022-08-31T03:42:44.220Z,85
2022-08-31T03:43:16.252Z,85
2022-08-31T03:43:48.170Z,85
2022-08-31T03:44:19.614Z,85
2022-08-31T03:44:52.191Z,85
2022-08-31T03:45:24.316Z,85
2022-08-31T03:45:47.124Z,85
2022-08-31T03:46:12.070Z,85
2022-08-31T03:46:45.961Z,85
2022-08-31T03:47:16.148Z,85
2022-08-31T03:47:48.265Z,85
2022-08-31T03:48:19.368Z,85
2022-08-31T03:48:52.475Z,85
2022-08-31T03:49:24.338Z,86
2022-08-31T03:49:46.955Z,85
2022-08-31T03:50:09.298Z,86
2022-08-31T03:50:44.155Z,86
2022-08-31T03:51:16.277Z,85
2022-08-31T03:51:48.155Z,86
2022-08-31T03:52:19.359Z,85
2022-08-31T03:52:52.210Z,86
2022-08-31T03:53:24.666Z,86
2022-08-31T03:53:47.058Z,86
2022-08-31T03:54:10.973Z,86
2022-08-31T03:54:45.755Z,86
2022-08-31T03:55:16.254Z,86
2022-08-31T03:55:48.249Z,86
2022-08-31T03:56:19.713Z,86
2022-08-31T03:56:52.674Z,86
2022-08-31T03:57:24.227Z,85
2022-08-31T03:57:47.156Z,85
2022-08-31T03:58:09.471Z,85
2022-08-31T03:58:47.072Z,85
2022-08-31T03:59:16.104Z,85
2022-08-31T03:59:48.259Z,85
2022-08-31T04:00:19.268Z,85
2022-08-31T04:00:52.236Z,85
2022-08-31T04:01:24.328Z,85
2022-08-31T04:01:47.118Z,85
2022-08-31T04:02:09.415Z,85
2022-08-31T04:02:50.045Z,85
2022-08-31T04:03:17.822Z,85
2022-08-31T04:03:48.224Z,85
2022-08-31T04:04:19.249Z,85
2022-08-31T04:04:52.315Z,85
2022-08-31T04:05:24.133Z,85
2022-08-31T04:05:46.843Z,85
2022-08-31T04:06:09.407Z,85
2022-08-31T04:06:46.765Z,85
2022-08-31T04:07:16.797Z,85
2022-08-31T04:07:48.106Z,85
2022-08-31T04:08:19.323Z,86
2022-08-31T04:08:52.348Z,85
2022-08-31T04:09:24.660Z,85
2022-08-31T04:09:47.636Z,85
2022-08-31T04:10:10.143Z,85
2022-08-31T04:10:44.298Z,85
2022-08-31T04:11:16.455Z,85
2022-08-31T04:11:48.147Z,85
2022-08-31T04:12:20.753Z,86
2022-08-31T04:12:52.403Z,86
2022-08-31T04:13:30.053Z,85
2022-08-31T04:13:47.675Z,85
2022-08-31T04:14:09.931Z,86
2022-08-31T04:14:44.272Z,86
2022-08-31T04:15:16.995Z,86
2022-08-31T04:15:48.563Z,86
2022-08-31T04:16:19.417Z,86
2022-08-31T04:16:52.441Z,86
2022-08-31T04:17:24.174Z,86
2022-08-31T04:17:47.634Z,86
2022-08-31T04:18:09.657Z,86
2022-08-31T04:18:44.360Z,86
2022-08-31T04:19:16.236Z,86
2022-08-31T04:19:48.154Z,86
2022-08-31T04:20:19.403Z,86
2022-08-31T04:20:53.646Z,86
2022-08-31T04:21:24.298Z,86
2022-08-31T04:21:47.321Z,86
2022-08-31T04:22:09.979Z,86
2022-08-31T04:22:44.388Z,86
2022-08-31T04:23:16.886Z,86
2022-08-31T04:23:48.130Z,86
2022-08-31T04:24:19.549Z,86
2022-08-31T04:24:52.366Z,86
2022-08-31T04:25:24.870Z,86
2022-08-31T04:25:50.481Z,86
2022-08-31T04:26:31.810Z,86
2022-08-31T04:26:51.465Z,86
2022-08-31T04:27:17.174Z,86
2022-08-31T04:27:48.206Z,86
2022-08-31T04:28:14.295Z,86
2022-08-31T04:28:55.050Z,86
2022-08-31T04:29:25.409Z,86
2022-08-31T04:29:48.181Z,86
2022-08-31T04:30:10.993Z,86
2022-08-31T04:30:44.452Z,86
2022-08-31T04:31:16.324Z,86
2022-08-31T04:31:48.402Z,86
2022-08-31T04:32:19.847Z,86
2022-08-31T04:32:52.862Z,86
2022-08-31T04:33:26.138Z,86
2022-08-31T04:33:48.590Z,86
2022-08-31T04:34:12.222Z,86
2022-08-31T04:34:44.354Z,86
2022-08-31T04:35:16.469Z,86
2022-08-31T04:35:48.786Z,86
2022-08-31T04:36:20.366Z,86
2022-08-31T04:36:52.637Z,86
2022-08-31T04:37:24.252Z,86
2022-08-31T04:37:47.162Z,86
2022-08-31T04:38:10.229Z,86
2022-08-31T04:38:44.446Z,86
2022-08-31T04:39:17.383Z,86
2022-08-31T04:39:50.396Z,86
2022-08-31T04:40:20.500Z,86
2022-08-31T04:40:52.696Z,86
2022-08-31T04:41:24.450Z,86
2022-08-31T04:41:47.243Z,86
2022-08-31T04:42:10.424Z,86
2022-08-31T04:42:44.364Z,86
2022-08-31T04:43:21.242Z,86
2022-08-31T04:43:48.906Z,86
2022-08-31T04:44:20.445Z,86
2022-08-31T04:44:52.396Z,86
2022-08-31T04:45:24.308Z,86
2022-08-31T04:45:47.015Z,86
2022-08-31T04:46:10.263Z,86
2022-08-31T04:46:44.594Z,86
2022-08-31T04:47:18.947Z,86
2022-08-31T04:47:48.263Z,86
2022-08-31T04:48:19.419Z,86
2022-08-31T04:48:52.397Z,86
2022-08-31T04:49:24.998Z,86
2022-08-31T04:49:47.757Z,86
2022-08-31T04:50:10.815Z,86
2022-08-31T04:50:44.486Z,86
2022-08-31T04:51:17.507Z,86
2022-08-31T04:51:48.163Z,86
2022-08-31T04:52:19.466Z,86
2022-08-31T04:53:03.311Z,86
2022-08-31T04:53:24.384Z,86
2022-08-31T04:53:47.054Z,86
2022-08-31T04:54:09.533Z,86
2022-08-31T04:54:45.217Z,86
2022-08-31T04:55:17.787Z,85
2022-08-31T04:55:48.798Z,85
2022-08-31T04:56:19.391Z,85
2022-08-31T04:56:52.385Z,85
2022-08-31T04:57:24.333Z,85
2022-08-31T04:57:47.001Z,85
2022-08-31T04:58:09.483Z,85
2022-08-31T04:58:44.464Z,85
2022-08-31T04:59:17.642Z,85
2022-08-31T04:59:48.148Z,85
2022-08-31T05:00:19.814Z,85
2022-08-31T05:00:52.882Z,85
2022-08-31T05:01:24.355Z,85
2022-08-31T05:01:47.130Z,85
2022-08-31T05:02:09.765Z,85
2022-08-31T05:02:52.214Z,85
2022-08-31T05:03:16.567Z,85
2022-08-31T05:03:48.306Z,85
2022-08-31T05:04:19.382Z,85
2022-08-31T05:04:52.626Z,85
2022-08-31T05:05:24.203Z,85
2022-08-31T05:05:47.037Z,85
2022-08-31T05:06:09.699Z,85
2022-08-31T05:06:44.325Z,84
2022-08-31T05:07:16.331Z,84
2022-08-31T05:07:48.213Z,84
2022-08-31T05:08:19.587Z,84
2022-08-31T05:08:52.241Z,84
2022-08-31T05:09:24.236Z,84
2022-08-31T05:09:47.579Z,84
2022-08-31T05:10:09.890Z,84
2022-08-31T05:10:44.239Z,84
2022-08-31T05:11:16.395Z,84
2022-08-31T05:11:48.121Z,84
2022-08-31T05:12:19.302Z,84
2022-08-31T05:12:52.348Z,84
2022-08-31T05:13:24.281Z,84
2022-08-31T05:13:47.098Z,84
2022-08-31T05:14:09.421Z,84
2022-08-31T05:14:44.510Z,84
2022-08-31T05:15:16.485Z,84
2022-08-31T05:15:48.215Z,84
2022-08-31T05:16:20.868Z,84
2022-08-31T05:16:52.153Z,84
2022-08-31T05:17:24.221Z,84
2022-08-31T05:17:47.165Z,84
2022-08-31T05:18:09.483Z,84
2022-08-31T05:18:44.617Z,84
2022-08-31T05:19:19.737Z,84
2022-08-31T05:19:48.189Z,84
2022-08-31T05:20:19.529Z,83
2022-08-31T05:20:52.469Z,83
2022-08-31T05:21:24.137Z,83
2022-08-31T05:21:48.478Z,83
2022-08-31T05:22:10.854Z,83
2022-08-31T05:22:44.763Z,83
2022-08-31T05:23:11.980Z,83
2022-08-31T05:23:49.561Z,83
2022-08-31T05:24:19.913Z,83
2022-08-31T05:24:52.481Z,83
2022-08-31T05:25:24.327Z,83
2022-08-31T05:25:46.974Z,83
2022-08-31T05:26:09.487Z,83
2022-08-31T05:26:44.366Z,83
2022-08-31T05:27:16.936Z,83
2022-08-31T05:27:48.306Z,83
2022-08-31T05:28:20.306Z,83
2022-08-31T05:28:52.305Z,83
2022-08-31T05:29:24.799Z,83
2022-08-31T05:29:47.642Z,83
2022-08-31T05:30:10.235Z,83
2022-08-31T05:30:45.246Z,82
2022-08-31T05:31:16.965Z,82
2022-08-31T05:31:52.237Z,82
2022-08-31T05:32:19.686Z,82
2022-08-31T05:32:52.206Z,82
2022-08-31T05:33:24.858Z,82
2022-08-31T05:33:47.016Z,82
2022-08-31T05:34:10.171Z,82
2022-08-31T05:34:45.253Z,82
2022-08-31T05:35:16.610Z,82
2022-08-31T05:35:48.354Z,82
2022-08-31T05:36:19.380Z,82
2022-08-31T05:36:52.849Z,82
2022-08-31T05:37:24.948Z,82
2022-08-31T05:37:48.924Z,82
2022-08-31T05:38:09.968Z,82
2022-08-31T05:38:46.418Z,81
2022-08-31T05:39:17.928Z,81
2022-08-31T05:39:49.078Z,81
2022-08-31T05:40:19.677Z,81
2022-08-31T05:40:52.635Z,81
2022-08-31T05:41:24.161Z,81
2022-08-31T05:41:47.002Z,81
2022-08-31T05:42:15.421Z,81
2022-08-31T05:42:44.838Z,81
2022-08-31T05:43:16.322Z,81
2022-08-31T05:43:48.074Z,81
2022-08-31T05:44:19.903Z,81
2022-08-31T05:44:52.094Z,81
2022-08-31T05:45:27.800Z,81
2022-08-31T05:45:50.194Z,81
2022-08-31T05:46:32.088Z,81
2022-08-31T05:46:52.400Z,81
2022-08-31T05:47:13.841Z,81
2022-08-31T05:47:48.703Z,81
2022-08-31T05:48:19.442Z,81
2022-08-31T05:48:52.297Z,81
2022-08-31T05:49:24.194Z,81
2022-08-31T05:49:47.041Z,81
2022-08-31T05:50:09.469Z,81
2022-08-31T05:50:44.413Z,81
2022-08-31T05:51:16.432Z,80
2022-08-31T05:51:48.358Z,80
2022-08-31T05:52:19.864Z,80
2022-08-31T05:52:52.216Z,80
2022-08-31T05:53:25.286Z,80
2022-08-31T05:53:48.321Z,80
2022-08-31T05:54:10.822Z,80
2022-08-31T05:54:44.805Z,80
2022-08-31T05:55:16.206Z,80
2022-08-31T05:55:48.230Z,80
2022-08-31T05:56:19.425Z,80
2022-08-31T05:56:52.811Z,80
2022-08-31T05:57:26.667Z,80
2022-08-31T05:57:47.370Z,80
2022-08-31T05:58:09.683Z,80
2022-08-31T05:58:44.373Z,80
2022-08-31T05:59:16.569Z,79
2022-08-31T05:59:48.082Z,79
2022-08-31T06:00:19.489Z,79
2022-08-31T06:00:52.156Z,79
2022-08-31T06:01:24.311Z,79
2022-08-31T06:01:46.984Z,79
2022-08-31T06:02:11.231Z,79
2022-08-31T06:02:54.080Z,79
2022-08-31T06:03:16.360Z,79
2022-08-31T06:03:48.617Z,79
2022-08-31T06:04:20.202Z,79
2022-08-31T06:04:52.385Z,79
2022-08-31T06:05:24.248Z,79
2022-08-31T06:05:46.890Z,79
2022-08-31T06:06:13.489Z,79
2022-08-31T06:06:44.507Z,79
2022-08-31T06:07:19.374Z,79
2022-08-31T06:07:48.306Z,79
2022-08-31T06:08:19.724Z,79
2022-08-31T06:08:52.765Z,79
2022-08-31T06:09:25.115Z,79
2022-08-31T06:09:47.780Z,79
2022-08-31T06:10:10.196Z,79
2022-08-31T06:10:45.634Z,79
2022-08-31T06:11:16.202Z,79
2022-08-31T06:11:48.734Z,79
2022-08-31T06:12:20.039Z,79
2022-08-31T06:12:54.645Z,79
2022-08-31T06:13:24.634Z,78
2022-08-31T06:13:46.910Z,78
2022-08-31T06:14:09.943Z,78
2022-08-31T06:14:47.064Z,78
2022-08-31T06:15:16.430Z,78
2022-08-31T06:15:49.518Z,78
2022-08-31T06:16:20.496Z,78
2022-08-31T06:16:52.617Z,78
2022-08-31T06:17:24.507Z,78
2022-08-31T06:17:47.092Z,78
2022-08-31T06:18:09.516Z,78
2022-08-31T06:18:44.673Z,78
2022-08-31T06:19:16.186Z,78
2022-08-31T06:19:48.027Z,78
2022-08-31T06:20:20.029Z,78
2022-08-31T06:20:53.006Z,78
2022-08-31T06:21:24.213Z,78
2022-08-31T06:21:49.186Z,78
2022-08-31T06:22:09.847Z,78
2022-08-31T06:22:44.319Z,78
2022-08-31T06:23:18.226Z,78
2022-08-31T06:23:48.802Z,78
2022-08-31T06:24:23.795Z,78
2022-08-31T06:24:52.268Z,78
2022-08-31T06:25:25.618Z,78
2022-08-31T06:25:48.062Z,78
2022-08-31T06:26:11.810Z,78
2022-08-31T06:26:44.382Z,78
2022-08-31T06:27:16.753Z,78
2022-08-31T06:27:52.313Z,78
2022-08-31T06:28:15.160Z,78
2022-08-31T06:28:52.414Z,78
2022-08-31T06:29:24.164Z,78
2022-08-31T06:29:46.854Z,78
2022-08-31T06:30:09.554Z,78
2022-08-31T06:30:55.393Z,78
2022-08-31T06:31:16.372Z,78
2022-08-31T06:31:48.210Z,78
2022-08-31T06:32:21.077Z,78
2022-08-31T06:32:55.652Z,78
2022-08-31T06:33:24.239Z,78
2022-08-31T06:33:47.023Z,78
2022-08-31T06:34:09.378Z,78
2022-08-31T06:34:44.282Z,78
2022-08-31T06:35:16.221Z,78
2022-08-31T06:35:48.331Z,78
2022-08-31T06:36:19.506Z,78
2022-08-31T06:36:52.139Z,78
2022-08-31T06:37:24.185Z,78
2022-08-31T06:37:48.431Z,78
2022-08-31T06:38:09.108Z,78
2022-08-31T06:38:44.208Z,78
2022-08-31T06:39:18.617Z,78
2022-08-31T06:39:48.273Z,78
2022-08-31T06:40:19.642Z,78
2022-08-31T06:40:52.145Z,78
2022-08-31T06:41:24.509Z,78
2022-08-31T06:41:47.662Z,78
2022-08-31T06:42:10.001Z,78
2022-08-31T06:42:44.261Z,78
2022-08-31T06:43:16.138Z,78
2022-08-31T06:43:48.149Z,78
2022-08-31T06:44:19.482Z,77
2022-08-31T06:44:52.154Z,77
2022-08-31T06:45:24.112Z,77
2022-08-31T06:45:46.760Z,77
2022-08-31T06:46:10.721Z,77
2022-08-31T06:46:47.014Z,77
2022-08-31T06:47:19.673Z,77
2022-08-31T06:47:48.071Z,77
2022-08-31T06:48:19.473Z,77
2022-08-31T06:48:52.669Z,77
2022-08-31T06:49:24.622Z,77
2022-08-31T06:49:48.307Z,77
2022-08-31T06:50:10.693Z,77
2022-08-31T06:50:44.035Z,77
2022-08-31T06:51:16.308Z,77
2022-08-31T06:51:48.107Z,77
2022-08-31T06:52:19.547Z,77
2022-08-31T06:52:52.228Z,77
2022-08-31T06:53:24.114Z,77
2022-08-31T06:53:47.020Z,77
2022-08-31T06:54:27.857Z,77
2022-08-31T06:54:44.080Z,77
2022-08-31T06:55:16.196Z,76
2022-08-31T06:55:48.038Z,76
2022-08-31T06:56:20.761Z,76
2022-08-31T06:56:52.233Z,76
2022-08-31T06:57:24.101Z,76
2022-08-31T06:57:47.218Z,76
2022-08-31T06:58:10.976Z,76
2022-08-31T06:58:44.177Z,76
2022-08-31T06:59:16.216Z,76
2022-08-31T06:59:48.061Z,76
2022-08-31T07:00:19.364Z,76
2022-08-31T07:00:52.908Z,76
2022-08-31T07:01:34.943Z,76
2022-08-31T07:01:47.229Z,75
2022-08-31T07:02:10.162Z,75
2022-08-31T07:02:54.760Z,76
2022-08-31T07:03:16.431Z,76
2022-08-31T07:03:48.043Z,76
2022-08-31T07:04:19.511Z,76
2022-08-31T07:04:52.016Z,75
2022-08-31T07:05:24.658Z,75
2022-08-31T07:05:47.184Z,75
2022-08-31T07:06:09.603Z,76
2022-08-31T07:06:44.114Z,75
2022-08-31T07:07:16.214Z,75
2022-08-31T07:07:48.262Z,75
2022-08-31T07:08:19.734Z,75
2022-08-31T07:08:52.048Z,75
2022-08-31T07:09:24.249Z,75
2022-08-31T07:09:48.506Z,75
2022-08-31T07:10:10.932Z,75